Flight Track Log - Related Links

Times and Time Zones

All times are in EDT time to prevent confusion due to time zone crossing. See the JIA2558 flight status page for this flight to view local times or setup timezone preferences in your user account.

Time Position Orientation Groundspeed Altitude Reporting Facility
EDT Latitude Longitude Course Direction KTS MPH feet Rate Location/Type
Fri 08:16:15 AM 41.5129 -93.6365 296° West  Level FlightAware Approximate
Fri 08:17:39 AM 41.5533 -93.7464 152° Southeast 215 247 4,200  Level Minneapolis Center
Fri 08:19:33 AM 41.4458 -93.6692 132° Southeast 260 299 8,200 2,069 Climbing Chicago Center
Fri 08:20:33 AM 41.3903 -93.5878 147° Southeast 274 315 10,200 2,150 Climbing Chicago Center
Fri 08:21:33 AM 41.3175 -93.5250 148° Southeast 300 345 12,500 1,750 Climbing Chicago Center
Fri 08:22:33 AM 41.2386 -93.4592 144° Southeast 312 359 13,700 1,350 Climbing Chicago Center
Fri 08:23:33 AM 41.1600 -93.3825 132° Southeast 338 389 15,200 1,700 Climbing Chicago Center
Fri 08:24:33 AM 41.0906 -93.2817 132° Southeast 358 412 17,100 1,900 Climbing Chicago Center
Fri 08:25:33 AM 41.0231 -93.1814 131° Southeast 363 418 19,000 1,600 Climbing Chicago Center
Fri 08:26:33 AM 40.9575 -93.0814 131° Southeast 363 418 20,300 1,200 Climbing Chicago Center
Fri 08:27:33 AM 40.8881 -92.9756 132° Southeast 363 418 21,400 1,175 Climbing Chicago Center
Fri 08:29:42 AM 40.7325 -92.7461 133° Southeast 380 437 24,000 1,079 Climbing Kansas City Center
Fri 08:30:42 AM 40.6603 -92.6442 134° Southeast 385 443 24,800 500 Climbing Kansas City Center
Fri 08:31:42 AM 40.5794 -92.5342 131° Southeast 393 452 25,000 100 Climbing Kansas City Center
Fri 08:32:42 AM 40.5044 -92.4217 131° Southeast 406 467 25,000  Level Kansas City Center
Fri 08:33:42 AM 40.4297 -92.3094 133° Southeast 406 467 25,000 250 Level Kansas City Center
Fri 08:34:42 AM 40.3528 -92.2031 132° Southeast 412 474 25,500 750 Climbing Kansas City Center
Fri 08:35:42 AM 40.2733 -92.0886 132° Southeast 412 474 26,500 950 Climbing Kansas City Center
Fri 08:36:42 AM 40.1961 -91.9772 133° Southeast 407 468 27,400 843 Climbing Kansas City Center
Fri 08:37:43 AM 40.1231 -91.8742 133° Southeast 407 468 28,200 700 Climbing Kansas City Center
Fri 08:38:42 AM 40.0478 -91.7683 134° Southeast 407 468 28,800 605 Climbing Kansas City Center
Fri 08:39:42 AM 39.9681 -91.6606 131° Southeast 407 468 29,400 550 Climbing Kansas City Center
Fri 08:40:42 AM 39.8967 -91.5553 133° Southeast 407 468 29,900 500 Climbing Kansas City Center
Fri 08:41:42 AM 39.8214 -91.4503 133° Southeast 402 463 30,400 496 Climbing Kansas City Center
Fri 08:42:43 AM 39.7456 -91.3456 133° Southeast 402 463 30,900 500 Climbing Kansas City Center
Fri 08:43:42 AM 39.6697 -91.2383 133° Southeast 402 463 31,400 504 Climbing Kansas City Center
Fri 08:44:42 AM 39.5961 -91.1367 136° Southeast 397 457 31,900 500 Climbing Kansas City Center
Fri 08:45:42 AM 39.5161 -91.0356 132° Southeast 397 457 32,400 550 Climbing Kansas City Center
Fri 08:46:42 AM 39.4464 -90.9339 133° Southeast 386 444 33,000 300 Climbing Kansas City Center
Fri 08:47:42 AM 39.3725 -90.8328 133° Southeast 386 444 33,000  Level Kansas City Center
Fri 08:48:42 AM 39.2961 -90.7269 134° Southeast 386 444 33,000  Level Kansas City Center
Fri 08:49:42 AM 39.2200 -90.6236 132° Southeast 386 444 33,000  Level Kansas City Center
Fri 08:50:42 AM 39.1433 -90.5153 134° Southeast 391 450 33,000  Level Kansas City Center
Fri 08:51:42 AM 39.0628 -90.4075 134° Southeast 405 466 33,000  Level Kansas City Center
Fri 08:52:42 AM 38.9817 -90.2997 134° Southeast 412 474 33,000  Level Kansas City Center
Fri 08:53:42 AM 38.9008 -90.1925 133° Southeast 412 474 33,000  Level Kansas City Center
Fri 08:54:42 AM 38.8217 -90.0850 133° Southeast 412 474 33,000  Level Kansas City Center
Fri 08:55:42 AM 38.7428 -89.9781 134° Southeast 412 474 33,000  Level Kansas City Center
Fri 08:56:43 AM 38.6614 -89.8714 134° Southeast 412 474 33,000  Level Kansas City Center
Fri 08:57:42 AM 38.5889 -89.7750 134° Southeast 418 481 33,000  Level Kansas City Center
Fri 08:58:42 AM 38.5072 -89.6661 135° Southeast 418 481 33,000  Level Kansas City Center
Fri 08:59:42 AM 38.4214 -89.5553 135° Southeast 409 471 33,000  Level Kansas City Center
Fri 09:00:42 AM 38.3486 -89.4619 134° Southeast 409 471 33,000  Level Kansas City Center
Fri 09:01:42 AM 38.2625 -89.3489 135° Southeast 409 471 33,000  Level Kansas City Center
Fri 09:03:43 AM 38.1111 -89.1556 134° Southeast 404 465 33,000  Level Memphis Center
Fri 09:04:43 AM 38.0331 -89.0542 134° Southeast 404 465 33,000  Level Memphis Center
Fri 09:05:43 AM 37.9550 -88.9528 134° Southeast 404 465 33,000  Level Memphis Center
Fri 09:06:43 AM 37.8747 -88.8492 134° Southeast 404 465 33,000  Level Memphis Center
Fri 09:07:43 AM 37.7964 -88.7483 133° Southeast 404 465 33,000  Level Memphis Center
Fri 09:08:43 AM 37.7178 -88.6425 135° Southeast 404 465 33,000  Level Memphis Center
Fri 09:09:43 AM 37.6414 -88.5475 135° Southeast 404 465 33,000  Level Memphis Center
Fri 09:10:43 AM 37.5608 -88.4447 134° Southeast 404 465 33,000  Level Memphis Center
Fri 09:11:43 AM 37.4822 -88.3419 136° Southeast 404 465 33,000  Level Memphis Center
Fri 09:12:43 AM 37.4014 -88.2422 135° Southeast 404 465 33,000  Level Memphis Center
Fri 09:13:43 AM 37.3203 -88.1400 135° Southeast 409 471 33,000  Level Memphis Center
Fri 09:14:43 AM 37.2394 -88.0381 135° Southeast 418 481 33,000  Level Memphis Center
Fri 09:15:43 AM 37.1603 -87.9389 136° Southeast 405 466 33,000  Level Memphis Center
Fri 09:16:43 AM 37.0792 -87.8400 134° Southeast 399 459 33,000  Level Memphis Center
Fri 09:17:43 AM 37.0022 -87.7411 136° Southeast 405 466 33,000  Level Memphis Center
Fri 09:18:43 AM 36.9144 -87.6350 135° Southeast 405 466 33,000  Level Memphis Center
Fri 09:19:43 AM 36.8331 -87.5342 136° Southeast 405 466 33,000  Level Memphis Center
Fri 09:20:43 AM 36.7517 -87.4358 135° Southeast 405 466 33,000  Level Memphis Center
Fri 09:21:43 AM 36.6742 -87.3378 136° Southeast 400 460 33,000  Level Memphis Center
Fri 09:22:43 AM 36.5947 -87.2425 135° Southeast 400 460 33,000  Level Memphis Center
Fri 09:23:43 AM 36.5131 -87.1425 135° Southeast 400 460 33,000  Level Memphis Center
Fri 09:24:43 AM 36.4353 -87.0475 136° Southeast 405 466 33,000  Level Memphis Center
Fri 09:25:43 AM 36.3556 -86.9503 103° East 394 453 33,000  Level Memphis Center
Fri 09:26:43 AM 36.3264 -86.7944 104° East 394 453 33,000  Level Memphis Center
Fri 09:27:43 AM 36.2972 -86.6542 104° East 411 473 33,000  Level Memphis Center
Fri 09:28:43 AM 36.2700 -86.5164 105° East 419 482 33,000  Level Memphis Center
Fri 09:29:43 AM 36.2406 -86.3786 105° East 419 482 33,000  Level Memphis Center
Fri 09:30:43 AM 36.2111 -86.2386 105° East 408 470 33,000  Level Memphis Center
Fri 09:31:43 AM 36.1814 -86.1014 105° East 415 478 33,000  Level Memphis Center
Fri 09:32:43 AM 36.1517 -85.9617 105° East 410 472 33,000  Level Memphis Center
Fri 09:34:39 AM 36.0969 -85.7142 105° East 396 456 33,000  Level Atlanta Center
Fri 09:35:39 AM 36.0675 -85.5747 103° East 402 463 33,000  Level Atlanta Center
Fri 09:36:39 AM 36.0400 -85.4331 96° East 413 475 33,000  Level Atlanta Center
Fri 09:37:39 AM 36.0269 -85.2789 95° East 413 475 33,000  Level Atlanta Center
Fri 09:38:39 AM 36.0158 -85.1322 96° East 413 475 33,000  Level Atlanta Center
Fri 09:39:39 AM 36.0044 -84.9883 96° East 413 475 33,000  Level Atlanta Center
Fri 09:40:39 AM 35.9911 -84.8444 95° East 418 481 33,000  Level Atlanta Center
Fri 09:41:39 AM 35.9794 -84.6956 97° East 423 487 33,000  Level Atlanta Center
Fri 09:42:39 AM 35.9656 -84.5569 97° East 423 487 33,000  Level Atlanta Center
Fri 09:43:39 AM 35.9514 -84.4106 96° East 423 487 33,000 -50 Level Atlanta Center
Fri 09:44:39 AM 35.9392 -84.2669 97° East 423 487 32,900 -550 Descending Atlanta Center
Fri 09:45:39 AM 35.9247 -84.1183 97° East 423 487 31,900 -900 Descending Atlanta Center
Fri 09:46:39 AM 35.9122 -83.9900 95° East 423 487 31,100 -900 Descending Atlanta Center
Fri 09:47:39 AM 35.9017 -83.8414 90° East 429 494 30,100 -1,000 Descending Atlanta Center
Fri 09:48:39 AM 35.9014 -83.6928 92° East 429 494 29,100 -550 Descending Atlanta Center
Fri 09:49:39 AM 35.8967 -83.5414 90° East 429 494 29,000 -50 Descending Atlanta Center
Fri 09:50:39 AM 35.8958 -83.3878 91° East 439 505 29,000  Level Atlanta Center
Fri 09:51:39 AM 35.8931 -83.2364 86° East 439 505 29,000 -300 Level Atlanta Center
Fri 09:52:39 AM 35.9022 -83.0878 70° East 439 505 28,400 -1,200 Descending Atlanta Center
Fri 09:53:39 AM 35.9450 -82.9408 70° East 439 505 26,600 -1,750 Descending Atlanta Center
Fri 09:54:39 AM 35.9853 -82.8069 68° East 426 490 24,900 -1,300 Descending Atlanta Center
Fri 09:55:39 AM 36.0278 -82.6781 69° East 413 475 24,000 -450 Descending Atlanta Center
Fri 09:56:39 AM 36.0681 -82.5464 110° East 406 467 24,000 -350 Level Atlanta Center
Fri 09:57:39 AM 36.0308 -82.4186 122° Southeast 376 433 23,300 -1,350 Descending Atlanta Center
Fri 09:58:39 AM 35.9708 -82.2992 122° Southeast 390 449 21,300 -2,100 Descending Atlanta Center
Fri 09:59:39 AM 35.9086 -82.1750 122° Southeast 385 443 19,100 -2,050 Descending Atlanta Center
Fri 10:00:39 AM 35.8525 -82.0633 122° Southeast 385 443 17,200 -1,950 Descending Atlanta Center
Fri 10:01:39 AM 35.7964 -81.9522 124° Southeast 385 443 15,200 -2,000 Descending Atlanta Center
Fri 10:02:39 AM 35.7406 -81.8486 122° Southeast 378 435 13,200 -2,039 Descending Atlanta Center
Fri 10:03:22 AM 35.7036 -81.7756 124° Southeast 360 414 11,700 -1,671 Descending Atlanta Center
Fri 10:03:58 AM 35.6692 -81.7125 120° Southeast 353 406 11,000 -545 Descending Atlanta Center
Fri 10:04:39 AM 35.6408 -81.6519 125° Southeast 337 388 11,000  Level Atlanta Center
Fri 10:05:39 AM 35.5933 -81.5692 122° Southeast 307 353 11,000 -100 Level Atlanta Center
Fri 10:06:39 AM 35.5497 -81.4836 74° East 301 346 10,800 -650 Descending Atlanta Center
Fri 10:07:39 AM 35.5689 -81.3989 67° East 265 305 9,700 -867 Descending Atlanta Center
Fri 10:08:09 AM 35.5864 -81.3472 68° East 282 325 9,500 -600 Descending Atlanta Center
Fri 10:08:39 AM 35.5964 -81.3161 68° East 260 299 9,100 -1,180 Descending Atlanta Center
Fri 10:09:10 AM 35.6119 -81.2697 76° East 240 276 8,300 -1,304 Descending Atlanta Center
Fri 10:10:11 AM 35.6289 -81.1847 106° East 244 281 7,100 -1,082 Descending Atlanta Center
Fri 10:11:12 AM 35.6103 -81.1064 120° Southeast 238 274 6,100 -541 Descending Atlanta Center
Fri 10:12:13 AM 35.5772 -81.0361 150° Southeast 239 275 6,000 -140 Descending Atlanta Center
Fri 10:13:21 AM 35.5200 -80.9947 179° South 195 224 5,800 -829 Descending Atlanta Center
Fri 10:14:16 AM 35.4739 -80.9939 175° South 184 212 4,300 -885 Descending Atlanta Center
Fri 10:15:23 AM 35.4194 -80.9883 175° South 184 212 4,000 -328 Descending Atlanta Center
Fri 10:16:24 AM 35.3694 -80.9825 175° South 181 208 3,600 -393 Descending Atlanta Center

Login

Don't have an account? Register now (free) for customized features, flight alerts, and more!